Time,TemperatureF,DewpointF,PressureIn,WindDirection,WindDirectionDegrees,WindSpeedMPH,WindSpeedGustMPH,Humidity,HourlyPrecipIn,Conditions,Clouds,dailyrainin,SoftwareType,DateUTC
2013-02-15 00:00:00,35.5,30.0,30.19,NW,309,1.0,9.0,80,0.00,,,0.00,weatherlink.com 1.10,2013-02-15 05:00:00,
2013-02-15 00:15:00,36.1,30.0,30.18,WNW,300,1.0,8.0,79,0.00,,,0.00,weatherlink.com 1.10,2013-02-15 05:15:00,
2013-02-15 00:30:00,36.7,30.0,30.19,SSW,195,5.0,8.0,78,0.00,,,0.00,weatherlink.com 1.10,2013-02-15 05:30:00,
2013-02-15 00:45:00,36.9,31.0,30.19,SW,225,3.0,9.0,78,0.00,,,0.00,weatherlink.com 1.10,2013-02-15 05:45:00,
2013-02-15 01:00:00,36.1,30.0,30.20,NW,325,1.0,4.0,79,0.00,,,0.00,weatherlink.com 1.10,2013-02-15 06:00:00,
2013-02-15 01:15:00,36.5,30.0,30.20,South,188,2.0,5.0,77,0.00,,,0.00,weatherlink.com 1.10,2013-02-15 06:15:00,
2013-02-15 01:30:00,36.6,30.0,30.20,West,261,0.0,7.0,76,0.00,,,0.00,weatherlink.com 1.10,2013-02-15 06:30:00,
2013-02-15 01:45:00,36.3,30.0,30.20,WNW,284,6.0,7.0,78,0.00,,,0.00,weatherlink.com 1.10,2013-02-15 06:45:00,
2013-02-15 02:00:00,33.7,29.0,30.20,North,351,3.0,6.0,83,0.00,,,0.00,weatherlink.com 1.10,2013-02-15 07:00:00,
2013-02-15 02:15:00,33.8,29.0,30.20,North,351,1.0,3.0,83,0.00,,,0.00,weatherlink.com 1.10,2013-02-15 07:15:00,
2013-02-15 02:30:00,33.6,29.0,30.19,North,355,2.0,4.0,84,0.00,,,0.00,weatherlink.com 1.10,2013-02-15 07:30:00,
2013-02-15 02:45:00,33.1,29.0,30.19,North,355,1.0,5.0,85,0.00,,,0.00,weatherlink.com 1.10,2013-02-15 07:45:00,
2013-02-15 03:00:00,32.5,29.0,30.18,North,355,2.0,5.0,86,0.00,,,0.00,weatherlink.com 1.10,2013-02-15 08:00:00,
2013-02-15 03:15:00,32.2,29.0,30.18,NNE,26,4.0,5.0,86,0.00,,,0.00,weatherlink.com 1.10,2013-02-15 08:15:00,
2013-02-15 03:30:00,31.5,28.0,30.18,NNE,24,3.0,6.0,88,0.00,,,0.00,weatherlink.com 1.10,2013-02-15 08:30:00,
2013-02-15 03:45:00,32.1,29.0,30.17,North,5,4.0,5.0,87,0.00,,,0.00,weatherlink.com 1.10,2013-02-15 08:45:00,
2013-02-15 04:00:00,32.0,29.0,30.17,North,11,2.0,6.0,87,0.00,,,0.00,weatherlink.com 1.10,2013-02-15 09:00:00,
2013-02-15 04:15:00,32.5,29.0,30.18,North,11,2.0,5.0,87,0.00,,,0.00,weatherlink.com 1.10,2013-02-15 09:15:00,
2013-02-15 04:30:00,33.2,30.0,30.18,North,5,3.0,4.0,86,0.00,,,0.00,weatherlink.com 1.10,2013-02-15 09:30:00,
2013-02-15 04:45:00,33.5,30.0,30.18,NNE,21,5.0,6.0,85,0.00,,,0.00,weatherlink.com 1.10,2013-02-15 09:45:00,
2013-02-15 05:00:00,32.7,29.0,30.18,NW,326,3.0,9.0,86,0.00,,,0.00,weatherlink.com 1.10,2013-02-15 10:00:00,
2013-02-15 05:15:00,33.5,30.0,30.18,NW,324,2.0,6.0,86,0.00,,,0.00,weatherlink.com 1.10,2013-02-15 10:15:00,
2013-02-15 05:30:00,34.5,30.0,30.18,NNW,332,2.0,6.0,84,0.00,,,0.00,weatherlink.com 1.10,2013-02-15 10:30:00,
2013-02-15 05:45:00,34.5,30.0,30.18,NW,315,5.0,5.0,83,0.00,,,0.00,weatherlink.com 1.10,2013-02-15 10:45:00,
2013-02-15 06:00:00,35.6,30.0,30.18,NW,315,3.0,4.0,81,0.00,,,0.00,weatherlink.com 1.10,2013-02-15 11:00:00,
2013-02-15 06:15:00,36.9,30.0,30.18,NW,315,2.0,3.0,77,0.00,,,0.00,weatherlink.com 1.10,2013-02-15 11:15:00,
2013-02-15 06:30:00,36.4,30.0,30.18,NW,315,2.0,3.0,78,0.00,,,0.00,weatherlink.com 1.10,2013-02-15 11:30:00,
2013-02-15 06:45:00,36.9,30.0,30.19,North,355,1.0,3.0,76,0.00,,,0.00,weatherlink.com 1.10,2013-02-15 11:45:00,
2013-02-15 07:00:00,36.8,30.0,30.20,SE,132,1.0,3.0,76,0.00,,,0.00,weatherlink.com 1.10,2013-02-15 12:00:00,
2013-02-15 07:15:00,36.6,30.0,30.20,SE,132,0.0,3.0,76,0.00,,,0.00,weatherlink.com 1.10,2013-02-15 12:15:00,
2013-02-15 07:30:00,37.1,30.0,30.20,SE,132,0.0,3.0,75,0.00,,,0.00,weatherlink.com 1.10,2013-02-15 12:30:00,
2013-02-15 07:46:00,38.2,30.0,30.20,SE,132,2.0,2.0,73,0.00,,,0.00,weatherlink.com 1.10,2013-02-15 12:46:00,
2013-02-15 08:01:00,39.3,31.0,30.20,SE,134,1.0,3.0,71,0.00,,,0.00,weatherlink.com 1.10,2013-02-15 13:01:00,
2013-02-15 08:15:00,39.5,31.0,30.21,South,176,0.0,4.0,71,0.00,,,0.00,weatherlink.com 1.10,2013-02-15 13:15:00,
2013-02-15 08:30:00,39.9,31.0,30.21,SSE,161,1.0,5.0,70,0.00,,,0.00,weatherlink.com 1.10,2013-02-15 13:30:00,
2013-02-15 08:45:00,41.2,32.0,30.21,SSE,166,1.0,3.0,69,0.00,,,0.00,weatherlink.com 1.10,2013-02-15 13:45:00,
2013-02-15 09:01:00,40.9,32.0,30.21,ENE,71,2.0,3.0,70,0.00,,,0.00,weatherlink.com 1.10,2013-02-15 14:01:00,
2013-02-15 09:15:00,41.9,32.0,30.21,ENE,71,1.0,3.0,68,0.00,,,0.00,weatherlink.com 1.10,2013-02-15 14:15:00,
2013-02-15 09:30:00,43.2,33.0,30.21,East,83,1.0,5.0,67,0.00,,,0.00,weatherlink.com 1.10,2013-02-15 14:30:00,
2013-02-15 09:46:00,44.5,33.0,30.20,ESE,112,1.0,5.0,64,0.00,,,0.00,weatherlink.com 1.10,2013-02-15 14:46:00,
2013-02-15 10:01:00,44.7,33.0,30.20,ESE,121,3.0,9.0,64,0.00,,,0.00,weatherlink.com 1.10,2013-02-15 15:01:00,
2013-02-15 10:16:00,46.3,32.0,30.20,WNW,303,3.0,9.0,58,0.00,,,0.00,weatherlink.com 1.10,2013-02-15 15:16:00,
2013-02-15 10:34:00,45.1,29.0,30.19,South,189,6.0,8.0,53,0.00,,,0.00,weatherlink.com 1.10,2013-02-15 15:34:00,
2013-02-15 10:46:00,45.9,30.0,30.19,SSW,200,1.0,7.0,54,0.00,,,0.00,weatherlink.com 1.10,2013-02-15 15:46:00,
2013-02-15 11:01:00,47.4,29.0,30.18,ESE,120,1.0,7.0,50,0.00,,,0.00,weatherlink.com 1.10,2013-02-15 16:01:00,
2013-02-15 11:16:00,48.2,30.0,30.18,WSW,248,3.0,7.0,50,0.00,,,0.00,weatherlink.com 1.10,2013-02-15 16:16:00,
2013-02-15 11:31:00,47.5,30.0,30.18,SSE,154,4.0,8.0,51,0.00,,,0.00,weatherlink.com 1.10,2013-02-15 16:31:00,
2013-02-15 11:46:00,50.6,30.0,30.17,West,261,4.0,9.0,45,0.00,,,0.00,weatherlink.com 1.10,2013-02-15 16:46:00,
2013-02-15 12:01:00,50.9,31.0,30.16,SW,232,3.0,7.0,47,0.00,,,0.00,weatherlink.com 1.10,2013-02-15 17:01:00,
2013-02-15 12:17:00,50.2,26.0,30.16,SW,227,7.0,13.0,39,0.00,,,0.00,weatherlink.com 1.10,2013-02-15 17:17:00,
2013-02-15 12:32:00,50.4,28.0,30.15,SSE,155,2.0,7.0,43,0.00,,,0.00,weatherlink.com 1.10,2013-02-15 17:32:00,
2013-02-15 12:47:00,51.9,28.0,30.14,SSW,208,5.0,9.0,40,0.00,,,0.00,weatherlink.com 1.10,2013-02-15 17:47:00,
2013-02-15 13:02:00,51.0,28.0,30.13,SSE,168,3.0,10.0,41,0.00,,,0.00,weatherlink.com 1.10,2013-02-15 18:02:00,
2013-02-15 13:17:00,51.1,27.0,30.13,SSW,207,4.0,14.0,39,0.00,,,0.00,weatherlink.com 1.10,2013-02-15 18:17:00,
2013-02-15 13:32:00,48.5,26.0,30.12,SW,222,3.0,13.0,41,0.00,,,0.00,weatherlink.com 1.10,2013-02-15 18:32:00,
2013-02-15 13:47:00,48.8,28.0,30.11,SW,228,4.0,12.0,45,0.00,,,0.00,weatherlink.com 1.10,2013-02-15 18:47:00,
2013-02-15 14:02:00,49.0,27.0,30.10,SW,221,6.0,13.0,43,0.00,,,0.00,weatherlink.com 1.10,2013-02-15 19:02:00,
2013-02-15 14:17:00,51.0,25.0,30.09,SSW,204,5.0,14.0,37,0.00,,,0.00,weatherlink.com 1.10,2013-02-15 19:17:00,
2013-02-15 14:32:00,49.4,26.0,30.09,South,187,9.0,11.0,40,0.00,,,0.00,weatherlink.com 1.10,2013-02-15 19:32:00,
2013-02-15 14:47:00,47.8,27.0,30.09,WSW,240,7.0,18.0,44,0.00,,,0.00,weatherlink.com 1.10,2013-02-15 19:47:00,
2013-02-15 15:02:00,48.1,28.0,30.09,SSW,204,3.0,10.0,45,0.00,,,0.00,weatherlink.com 1.10,2013-02-15 20:02:00,
2013-02-15 15:17:00,46.9,30.0,30.08,North,355,2.0,10.0,52,0.00,,,0.00,weatherlink.com 1.10,2013-02-15 20:17:00,
2013-02-15 15:32:00,46.0,32.0,30.09,WSW,247,2.0,6.0,58,0.00,,,0.00,weatherlink.com 1.10,2013-02-15 20:32:00,
2013-02-15 15:47:00,44.5,32.0,30.09,WNW,300,3.0,9.0,61,0.00,,,0.00,weatherlink.com 1.10,2013-02-15 20:47:00,
2013-02-15 16:02:00,42.8,36.0,30.09,SSW,204,1.0,6.0,76,0.00,,,0.00,weatherlink.com 1.10,2013-02-15 21:02:00,
2013-02-15 16:17:00,42.0,35.0,30.08,North,355,1.0,10.0,76,0.00,,,0.00,weatherlink.com 1.10,2013-02-15 21:17:00,
2013-02-15 16:32:00,40.8,35.0,30.09,WNW,284,5.0,16.0,80,0.00,,,0.00,weatherlink.com 1.10,2013-02-15 21:32:00,
2013-02-15 16:47:00,40.0,36.0,30.08,WNW,294,2.0,14.0,85,0.01,,,0.01,weatherlink.com 1.10,2013-02-15 21:47:00,
2013-02-15 17:02:00,41.4,35.0,30.08,SSW,198,7.0,11.0,79,0.01,,,0.01,weatherlink.com 1.10,2013-02-15 22:02:00,
2013-02-15 17:17:00,41.8,35.0,30.08,SW,223,4.0,7.0,76,0.01,,,0.01,weatherlink.com 1.10,2013-02-15 22:17:00,
2013-02-15 17:32:00,41.4,35.0,30.09,WNW,288,3.0,11.0,79,0.01,,,0.01,weatherlink.com 1.10,2013-02-15 22:32:00,
2013-02-15 17:47:00,40.4,36.0,30.09,WSW,257,2.0,11.0,83,0.00,,,0.01,weatherlink.com 1.10,2013-02-15 22:47:00,
2013-02-15 18:02:00,39.5,36.0,30.10,WNW,286,7.0,10.0,86,0.00,,,0.01,weatherlink.com 1.10,2013-02-15 23:02:00,
2013-02-15 18:17:00,38.3,35.0,30.10,North,360,6.0,8.0,87,0.01,,,0.02,weatherlink.com 1.10,2013-02-15 23:17:00,
2013-02-15 18:33:00,36.6,34.0,30.10,North,355,7.0,12.0,89,0.03,,,0.04,weatherlink.com 1.10,2013-02-15 23:33:00,
2013-02-15 18:48:00,35.5,33.0,30.09,North,351,6.0,18.0,91,0.03,,,0.04,weatherlink.com 1.10,2013-02-15 23:48:00,
2013-02-15 19:03:00,35.4,33.0,30.09,NW,312,5.0,14.0,91,0.03,,,0.04,weatherlink.com 1.10,2013-02-16 00:03:00,
2013-02-15 19:18:00,35.2,33.0,30.09,North,5,4.0,12.0,91,0.02,,,0.04,weatherlink.com 1.10,2013-02-16 00:18:00,
2013-02-15 19:32:00,34.2,32.0,30.09,North,355,7.0,13.0,92,0.00,,,0.04,weatherlink.com 1.10,2013-02-16 00:32:00,
2013-02-15 19:48:00,34.0,32.0,30.08,NNW,347,8.0,17.0,93,0.00,,,0.04,weatherlink.com 1.10,2013-02-16 00:48:00,
2013-02-15 20:03:00,34.0,32.0,30.09,NNW,345,12.0,21.0,92,0.00,,,0.04,weatherlink.com 1.10,2013-02-16 01:03:00,
2013-02-15 20:18:00,33.5,32.0,30.10,NW,311,6.0,19.0,92,0.00,,,0.04,weatherlink.com 1.10,2013-02-16 01:18:00,
2013-02-15 20:32:00,33.0,31.0,30.09,North,351,8.0,16.0,93,0.00,,,0.04,weatherlink.com 1.10,2013-02-16 01:32:00,
2013-02-15 20:47:00,32.8,31.0,30.10,NW,319,5.0,19.0,92,0.00,,,0.04,weatherlink.com 1.10,2013-02-16 01:47:00,
2013-02-15 21:02:00,32.8,31.0,30.10,NNW,342,7.0,16.0,92,0.00,,,0.04,weatherlink.com 1.10,2013-02-16 02:02:00,
2013-02-15 21:18:00,32.4,30.0,30.10,NNW,335,7.0,12.0,92,0.00,,,0.04,weatherlink.com 1.10,2013-02-16 02:18:00,
2013-02-15 21:33:00,32.1,30.0,30.11,NNE,25,5.0,15.0,92,0.00,,,0.04,weatherlink.com 1.10,2013-02-16 02:33:00,
2013-02-15 22:03:00,31.8,30.0,30.11,North,9,6.0,13.0,92,0.00,,,0.04,weatherlink.com 1.10,2013-02-16 03:03:00,
2013-02-15 22:18:00,31.3,29.0,30.10,NNW,341,10.0,16.0,92,0.00,,,0.04,weatherlink.com 1.10,2013-02-16 03:18:00,
2013-02-15 22:33:00,30.8,29.0,30.09,NNW,344,11.0,23.0,92,0.00,,,0.04,weatherlink.com 1.10,2013-02-16 03:33:00,
2013-02-15 22:48:00,30.6,29.0,30.08,NW,310,12.0,17.0,92,0.00,,,0.04,weatherlink.com 1.10,2013-02-16 03:48:00,
2013-02-15 23:03:00,30.5,28.0,30.07,NNW,343,19.0,19.0,91,0.00,,,0.04,weatherlink.com 1.10,2013-02-16 04:03:00,
2013-02-15 23:18:00,30.2,28.0,30.07,North,5,9.0,20.0,91,0.00,,,0.04,weatherlink.com 1.10,2013-02-16 04:18:00,
2013-02-15 23:33:00,29.3,27.0,30.06,North,355,17.0,21.0,90,0.00,,,0.04,weatherlink.com 1.10,2013-02-16 04:33:00,
2013-02-15 23:48:00,28.7,26.0,30.07,NNW,330,10.0,21.0,90,0.00,,,0.04,weatherlink.com 1.10,2013-02-16 04:48:00,